Time;durP1;ratioP1;P1;durP2;ratioP2;P2;SDS_P1;SDS_P2;PMS_P1;PMS_P2;Temp;Humidity;BMP_temperature;BMP_pressure;BME280_temperature;BME280_humidity;BME280_pressure;Samples;Min_cycle;Max_cycle;Signal;HPM_P1;HPM_P2
2023/03/02 00:02:00;;;;;;;8.40;4.07;;;1.10;99.90;;;;;;5118674;27;20498;-68
2023/03/02 00:04:39;;;;;;;11.17;5.10;;;1.10;99.90;;;;;;5125559;27;20765;-69
2023/03/02 00:07:09;;;;;;;10.97;5.40;;;1.00;99.90;;;;;;5114691;28;20448;-68
2023/03/02 00:09:36;;;;;;;8.40;4.90;;;0.90;99.90;;;;;;5114959;28;20421;-68
2023/03/02 00:12:03;;;;;;;7.00;4.60;;;0.90;99.90;;;;;;5117914;27;20406;-69
2023/03/02 00:14:29;;;;;;;8.30;5.47;;;0.90;99.90;;;;;;5146069;27;20796;-68
2023/03/02 00:16:54;;;;;;;7.00;5.13;;;0.90;99.90;;;;;;5134362;27;20401;-69
2023/03/02 00:19:20;;;;;;;6.73;4.83;;;0.90;99.90;;;;;;5132501;27;20185;-69
2023/03/02 00:21:46;;;;;;;9.63;6.10;;;0.80;99.90;;;;;;5135319;27;20177;-68
2023/03/02 00:24:13;;;;;;;7.00;4.83;;;0.90;99.90;;;;;;5135194;27;20561;-68
2023/03/02 00:26:39;;;;;;;9.57;5.60;;;0.90;99.90;;;;;;5135144;27;20199;-68
2023/03/02 00:29:04;;;;;;;8.70;5.93;;;0.90;99.90;;;;;;5134572;27;20406;-69
2023/03/02 00:31:30;;;;;;;6.90;5.10;;;0.80;99.90;;;;;;5133931;27;20686;-69
2023/03/02 00:33:55;;;;;;;10.20;5.33;;;0.80;99.90;;;;;;5135104;27;20158;-69
2023/03/02 00:36:22;;;;;;;8.70;5.43;;;0.80;99.90;;;;;;5134950;27;20164;-68
2023/03/02 00:38:48;;;;;;;12.03;4.83;;;0.80;99.90;;;;;;5134544;27;20166;-68
2023/03/02 00:41:15;;;;;;;7.73;4.53;;;0.80;99.90;;;;;;5133531;27;20799;-68
2023/03/02 00:43:41;;;;;;;12.70;5.53;;;0.80;99.90;;;;;;5129201;27;20396;-68
2023/03/02 00:46:15;;;;;;;10.97;5.30;;;0.80;99.90;;;;;;5114206;28;20450;-68
2023/03/02 00:48:41;;;;;;;7.63;4.73;;;0.80;99.90;;;;;;5113903;28;20401;-69
2023/03/02 00:51:07;;;;;;;6.90;4.00;;;0.80;99.90;;;;;;5112763;28;20571;-68
2023/03/02 00:53:34;;;;;;;12.83;6.47;;;0.80;99.90;;;;;;5114146;28;20169;-68
2023/03/02 00:56:01;;;;;;;13.20;5.80;;;0.80;99.90;;;;;;5112625;28;20414;-68
2023/03/02 00:58:27;;;;;;;8.03;4.80;;;0.80;99.90;;;;;;5113761;28;20498;-68
2023/03/02 01:00:53;;;;;;;8.80;4.13;;;0.80;99.90;;;;;;5113981;28;20429;-68
2023/03/02 01:03:19;;;;;;;8.00;5.00;;;0.80;99.90;;;;;;5128952;27;20887;-69
2023/03/02 01:05:45;;;;;;;9.93;5.87;;;0.90;99.90;;;;;;5116677;27;20192;-68
2023/03/02 01:08:11;;;;;;;7.90;5.17;;;0.90;99.90;;;;;;5113721;28;20400;-69
2023/03/02 01:10:37;;;;;;;7.90;4.60;;;0.90;99.90;;;;;;5112467;28;20569;-68
2023/03/02 01:13:04;;;;;;;8.23;5.50;;;0.90;99.90;;;;;;5122883;27;20433;-68
2023/03/02 01:15:31;;;;;;;6.57;4.07;;;0.90;99.90;;;;;;5133794;27;20402;-69
2023/03/02 01:17:58;;;;;;;11.13;6.00;;;0.90;99.90;;;;;;5134411;27;20396;-69
2023/03/02 01:20:23;;;;;;;6.87;4.03;;;0.90;99.90;;;;;;5145908;27;20447;-69
2023/03/02 01:22:49;;;;;;;5.50;4.20;;;0.90;99.90;;;;;;5133980;27;20899;-69
2023/03/02 01:25:15;;;;;;;5.53;4.20;;;0.90;99.90;;;;;;5133951;27;20183;-70
2023/03/02 01:27:40;;;;;;;3.50;3.20;;;0.80;99.90;;;;;;5132326;27;20403;-70
2023/03/02 01:30:07;;;;;;;13.00;5.50;;;0.80;99.90;;;;;;5133746;27;20192;-69
2023/03/02 01:32:32;;;;;;;7.33;4.23;;;0.80;99.90;;;;;;5133904;27;20165;-70
2023/03/02 01:34:58;;;;;;;10.93;4.83;;;0.80;99.90;;;;;;5133857;27;20405;-69
2023/03/02 01:37:23;;;;;;;13.23;4.40;;;0.70;99.90;;;;;;5132176;27;20170;-70
2023/03/02 01:39:49;;;;;;;8.87;4.40;;;0.70;99.90;;;;;;5133679;27;20199;-70
2023/03/02 01:42:15;;;;;;;11.37;5.37;;;0.70;99.90;;;;;;5128211;27;20172;-70
2023/03/02 01:44:47;;;;;;;7.03;4.50;;;0.70;99.90;;;;;;5113163;28;20595;-70
2023/03/02 01:47:23;;;;;;;7.73;4.83;;;0.60;99.90;;;;;;5113039;28;20411;-70
2023/03/02 01:50:01;;;;;;;8.00;4.87;;;0.60;99.90;;;;;;5117230;28;20429;-69
2023/03/02 01:52:29;;;;;;;8.63;4.50;;;0.60;99.90;;;;;;5113473;28;20493;-69
2023/03/02 01:54:59;;;;;;;7.70;4.40;;;0.60;99.90;;;;;;5112863;28;20406;-69
2023/03/02 01:57:29;;;;;;;6.73;5.03;;;0.50;99.90;;;;;;5112624;28;20403;-70
2023/03/02 02:00:07;;;;;;;4.80;3.57;;;0.50;99.90;;;;;;5115412;28;20415;-69
2023/03/02 02:02:34;;;;;;;9.80;5.57;;;0.50;99.90;;;;;;5115671;28;20397;-70
2023/03/02 02:05:00;;;;;;;9.10;5.30;;;0.50;99.90;;;;;;5115137;28;20758;-70
2023/03/02 02:07:26;;;;;;;6.63;4.40;;;0.50;99.90;;;;;;5114844;27;20493;-69
2023/03/02 02:09:53;;;;;;;6.80;5.53;;;0.40;99.90;;;;;;5112579;28;20178;-69
2023/03/02 02:12:22;;;;;;;5.43;3.90;;;0.40;99.90;;;;;;5114115;27;20412;-69
2023/03/02 02:14:49;;;;;;;8.30;4.37;;;0.40;99.90;;;;;;5112483;28;20518;-69
2023/03/02 02:17:16;;;;;;;8.30;4.40;;;0.40;99.90;;;;;;5112324;28;20398;-69
2023/03/02 02:20:05;;;;;;;7.03;4.63;;;0.40;99.90;;;;;;5112463;28;20422;-69
2023/03/02 02:22:46;;;;;;;6.90;4.10;;;0.30;99.90;;;;;;5111342;28;20422;-69
2023/03/02 02:25:36;;;;;;;7.97;4.33;;;0.30;99.90;;;;;;5111068;28;20438;-69
2023/03/02 02:28:07;;;;;;;9.23;4.23;;;0.30;99.90;;;;;;5110173;28;20929;-70
2023/03/02 02:30:34;;;;;;;6.07;4.60;;;0.30;99.90;;;;;;5123980;27;20425;-69
2023/03/02 02:33:00;;;;;;;8.80;6.17;;;0.20;99.90;;;;;;5140610;27;20438;-69
2023/03/02 02:35:29;;;;;;;8.40;5.50;;;0.20;99.90;;;;;;5152243;27;20417;-70
2023/03/02 02:38:03;;;;;;;9.53;5.03;;;0.20;99.90;;;;;;5153396;27;20397;-69
2023/03/02 02:40:37;;;;;;;6.93;4.80;;;0.20;99.90;;;;;;5152281;27;20429;-69
2023/03/02 02:43:04;;;;;;;5.77;4.33;;;0.20;99.90;;;;;;5153488;27;20475;-69
2023/03/02 02:45:30;;;;;;;16.53;4.00;;;0.20;99.90;;;;;;5153528;27;20921;-69
2023/03/02 02:47:56;;;;;;;7.70;4.53;;;0.20;99.90;;;;;;5153109;27;20499;-69
2023/03/02 02:50:29;;;;;;;8.17;5.00;;;0.10;99.90;;;;;;5153383;27;20936;-69
2023/03/02 02:53:05;;;;;;;8.00;4.90;;;0.10;99.90;;;;;;5153552;27;20434;-69
2023/03/02 02:55:33;;;;;;;8.80;3.87;;;0.10;99.90;;;;;;5153359;27;20400;-69
2023/03/02 02:58:01;;;;;;;5.40;3.80;;;0.10;99.90;;;;;;5153076;27;20479;-69
2023/03/02 03:00:27;;;;;;;7.00;5.00;;;0.10;99.90;;;;;;5142403;27;20432;-69
2023/03/02 03:03:00;;;;;;;10.70;5.43;;;0.10;99.90;;;;;;5112159;28;20807;-69
2023/03/02 03:05:26;;;;;;;4.80;4.10;;;0.10;99.90;;;;;;5111918;28;20445;-69
2023/03/02 03:07:52;;;;;;;13.43;5.03;;;0.10;99.90;;;;;;5110462;28;20410;-69
2023/03/02 03:10:33;;;;;;;5.77;4.17;;;0.10;99.90;;;;;;5112037;28;20185;-69
2023/03/02 03:12:59;;;;;;;9.83;5.10;;;0.10;99.90;;;;;;5111930;28;20175;-69
2023/03/02 03:15:25;;;;;;;6.60;4.70;;;0.10;99.90;;;;;;5112146;28;20411;-69
2023/03/02 03:17:57;;;;;;;8.03;4.10;;;0.10;99.90;;;;;;5111320;28;20165;-69
2023/03/02 03:20:24;;;;;;;11.47;6.27;;;0.00;99.90;;;;;;5111741;28;20606;-69
2023/03/02 03:22:52;;;;;;;7.70;4.07;;;-0.10;99.90;;;;;;5111896;28;20407;-69
2023/03/02 03:25:18;;;;;;;8.40;4.80;;;-0.10;99.90;;;;;;5111774;28;20439;-69
2023/03/02 03:27:44;;;;;;;7.17;4.30;;;-0.10;99.90;;;;;;5110333;28;20406;-70
2023/03/02 03:30:11;;;;;;;7.17;4.23;;;-0.10;99.90;;;;;;5116725;28;20429;-69
2023/03/02 03:32:37;;;;;;;9.00;4.93;;;-0.10;99.90;;;;;;5115956;27;20222;-69
2023/03/02 03:35:07;;;;;;;7.13;4.67;;;-0.10;99.90;;;;;;5111812;28;20391;-70
2023/03/02 03:37:33;;;;;;;7.30;5.10;;;-0.10;99.90;;;;;;5111856;28;20659;-69
2023/03/02 03:39:59;;;;;;;10.60;5.07;;;-0.10;99.90;;;;;;5114201;28;20418;-69
2023/03/02 03:42:25;;;;;;;7.60;4.30;;;-0.10;99.90;;;;;;5138310;27;20404;-69
2023/03/02 03:44:50;;;;;;;10.83;4.33;;;-0.10;99.90;;;;;;5139440;27;20172;-70
2023/03/02 03:47:16;;;;;;;9.83;4.70;;;-0.10;99.90;;;;;;5135696;27;20208;-69
2023/03/02 03:49:41;;;;;;;6.40;4.50;;;-0.10;99.90;;;;;;5135752;27;20208;-69
2023/03/02 03:52:07;;;;;;;9.10;5.27;;;-0.10;99.90;;;;;;5135833;27;20526;-69
2023/03/02 03:54:32;;;;;;;5.93;3.80;;;-0.10;99.90;;;;;;5135928;27;20511;-69
2023/03/02 03:56:58;;;;;;;6.83;4.60;;;-0.10;99.90;;;;;;5135470;27;20218;-68
2023/03/02 03:59:25;;;;;;;11.77;6.07;;;-0.10;99.90;;;;;;5134962;27;20188;-68
2023/03/02 04:01:53;;;;;;;13.63;5.83;;;-0.20;99.90;;;;;;5113823;28;20181;-68
2023/03/02 04:04:29;;;;;;;10.67;5.97;;;-0.20;99.90;;;;;;5120311;27;20405;-68
2023/03/02 04:06:56;;;;;;;10.07;5.30;;;-0.20;99.90;;;;;;5135249;27;20556;-69
2023/03/02 04:09:23;;;;;;;6.13;4.80;;;-0.20;99.90;;;;;;5135387;27;20768;-68
2023/03/02 04:11:50;;;;;;;11.20;4.93;;;-0.20;99.90;;;;;;5135483;27;20397;-68
2023/03/02 04:14:17;;;;;;;8.93;5.43;;;-0.20;99.90;;;;;;5135490;27;20422;-68
2023/03/02 04:16:43;;;;;;;7.97;4.13;;;-0.20;99.90;;;;;;5135354;27;20918;-68
2023/03/02 04:19:09;;;;;;;5.60;4.13;;;-0.20;99.90;;;;;;5134943;27;20424;-68
2023/03/02 04:21:41;;;;;;;9.50;5.40;;;-0.30;99.90;;;;;;5135323;27;20411;-69
2023/03/02 04:24:08;;;;;;;5.40;3.97;;;-0.30;99.90;;;;;;5135177;27;20401;-68
2023/03/02 04:26:34;;;;;;;13.63;5.50;;;-0.30;99.90;;;;;;5135134;27;20836;-69
2023/03/02 04:29:00;;;;;;;11.03;4.50;;;-0.30;99.90;;;;;;5134916;27;20399;-69
2023/03/02 04:31:26;;;;;;;7.30;4.47;;;-0.30;99.90;;;;;;5114792;27;20477;-69
2023/03/02 04:33:52;;;;;;;9.67;5.07;;;-0.30;99.90;;;;;;5113760;28;20434;-69
2023/03/02 04:36:18;;;;;;;5.17;3.80;;;-0.30;99.90;;;;;;5114217;28;20166;-68
2023/03/02 04:38:44;;;;;;;10.97;5.10;;;-0.30;99.90;;;;;;5114121;28;20173;-69
2023/03/02 04:41:10;;;;;;;8.30;5.67;;;-0.30;99.90;;;;;;5114335;27;20432;-69
2023/03/02 04:43:35;;;;;;;5.50;4.07;;;-0.30;99.90;;;;;;5114276;28;20414;-69
2023/03/02 04:46:01;;;;;;;9.30;5.73;;;-0.30;99.90;;;;;;5114168;28;20201;-69
2023/03/02 04:48:27;;;;;;;5.47;4.40;;;-0.30;99.90;;;;;;5113855;28;20166;-69
2023/03/02 04:50:52;;;;;;;9.67;5.47;;;-0.30;99.90;;;;;;5133201;27;20252;-69
2023/03/02 04:53:18;;;;;;;7.40;5.87;;;-0.30;99.90;;;;;;5139725;27;20229;-68
2023/03/02 04:55:43;;;;;;;7.90;5.20;;;-0.30;99.90;;;;;;5134568;27;20581;-69
2023/03/02 04:58:09;;;;;;;9.10;5.33;;;-0.30;99.90;;;;;;5134247;27;20179;-70
2023/03/02 05:00:35;;;;;;;7.00;4.73;;;-0.20;99.90;;;;;;5119501;27;20255;-68
2023/03/02 05:03:02;;;;;;;5.47;4.20;;;-0.30;99.90;;;;;;5113936;28;20207;-68
2023/03/02 05:05:29;;;;;;;10.10;4.47;;;-0.20;99.90;;;;;;5128811;27;20871;-68
2023/03/02 05:07:57;;;;;;;10.57;5.90;;;-0.30;99.90;;;;;;5134544;27;20880;-68
2023/03/02 05:10:23;;;;;;;9.93;5.63;;;-0.30;99.90;;;;;;5134257;27;20426;-69
2023/03/02 05:12:57;;;;;;;8.73;5.10;;;-0.30;99.90;;;;;;5134168;27;20422;-69
2023/03/02 05:15:25;;;;;;;8.70;5.40;;;-0.30;99.90;;;;;;5132893;27;20175;-69
2023/03/02 05:17:51;;;;;;;8.57;5.17;;;-0.30;99.90;;;;;;5133821;27;20409;-69
2023/03/02 05:20:17;;;;;;;5.23;4.73;;;-0.30;99.90;;;;;;5133999;27;20437;-69
2023/03/02 05:22:42;;;;;;;8.60;4.90;;;-0.30;99.90;;;;;;5134134;27;20634;-71
2023/03/02 05:25:08;;;;;;;9.40;4.90;;;-0.30;99.90;;;;;;5133940;27;20458;-69
2023/03/02 05:27:35;;;;;;;9.17;5.03;;;-0.40;99.90;;;;;;5133667;27;20169;-69
2023/03/02 05:30:03;;;;;;;8.50;4.83;;;-0.40;99.90;;;;;;5124395;27;20220;-69
2023/03/02 05:32:28;;;;;;;11.30;4.60;;;-0.40;99.90;;;;;;5133686;27;20398;-68
2023/03/02 05:34:54;;;;;;;7.87;4.53;;;-0.50;99.90;;;;;;5132591;27;20497;-68
2023/03/02 05:37:19;;;;;;;12.77;6.00;;;-0.40;99.90;;;;;;5133521;27;20243;-68
2023/03/02 05:39:45;;;;;;;7.30;4.73;;;-0.50;99.90;;;;;;5132543;27;20684;-68
2023/03/02 05:42:10;;;;;;;13.50;5.23;;;-0.50;99.90;;;;;;5133682;27;20195;-68
2023/03/02 05:44:36;;;;;;;6.53;4.23;;;-0.50;99.90;;;;;;5133715;27;20172;-68
2023/03/02 05:47:01;;;;;;;9.53;4.47;;;-0.50;99.90;;;;;;5131934;27;20670;-68
2023/03/02 05:49:27;;;;;;;7.20;4.00;;;-0.50;99.90;;;;;;5133460;27;20176;-68
2023/03/02 05:51:52;;;;;;;7.40;4.67;;;-0.50;99.90;;;;;;5133962;27;20162;-68
2023/03/02 05:54:18;;;;;;;10.77;5.17;;;-0.50;99.90;;;;;;5133619;27;20156;-68
2023/03/02 05:56:43;;;;;;;4.63;3.20;;;-0.50;99.90;;;;;;5132114;27;20595;-68
2023/03/02 05:59:09;;;;;;;6.13;4.67;;;-0.50;99.90;;;;;;5131877;27;20650;-69
2023/03/02 06:01:35;;;;;;;10.33;5.30;;;-0.50;99.90;;;;;;5127301;27;20267;-68
2023/03/02 06:04:01;;;;;;;7.03;4.50;;;-0.50;99.90;;;;;;5141007;27;21521;-68
2023/03/02 06:06:27;;;;;;;8.80;4.63;;;-0.50;99.90;;;;;;5112573;27;20470;-69
2023/03/02 06:08:53;;;;;;;26.00;10.33;;;-0.50;99.90;;;;;;5131642;27;20406;-69
2023/03/02 06:11:18;;;;;;;15.70;8.90;;;-0.50;99.90;;;;;;5133188;27;20417;-69
2023/03/02 06:13:44;;;;;;;6.70;5.07;;;-0.60;99.90;;;;;;5133015;27;20543;-69
2023/03/02 06:16:09;;;;;;;11.90;4.43;;;-0.60;99.90;;;;;;5131768;27;20270;-69
2023/03/02 06:18:35;;;;;;;11.27;5.27;;;-0.60;99.90;;;;;;5122018;27;20183;-69
2023/03/02 06:21:01;;;;;;;5.20;4.63;;;-0.60;99.90;;;;;;5133266;27;20197;-68
2023/03/02 06:23:27;;;;;;;8.23;5.30;;;-0.60;99.90;;;;;;5132983;27;20409;-68
2023/03/02 06:25:53;;;;;;;7.90;5.03;;;-0.60;99.90;;;;;;5132955;27;20452;-70
2023/03/02 06:28:19;;;;;;;6.70;3.93;;;-0.60;99.90;;;;;;5132612;27;20638;-68
2023/03/02 06:30:47;;;;;;;9.10;4.40;;;-0.60;99.90;;;;;;5132763;27;20184;-69
2023/03/02 06:33:14;;;;;;;8.47;4.57;;;-0.50;99.90;;;;;;5132989;27;20402;-71
2023/03/02 06:35:40;;;;;;;12.30;6.23;;;-0.40;99.90;;;;;;5132831;27;20409;-69
2023/03/02 06:38:06;;;;;;;8.87;5.10;;;-0.30;99.90;;;;;;5132547;27;20398;-69
2023/03/02 06:40:31;;;;;;;9.70;5.97;;;-0.30;99.90;;;;;;5132860;28;20436;-68
2023/03/02 06:42:59;;;;;;;9.87;5.70;;;-0.20;99.90;;;;;;5131557;28;20172;-68
2023/03/02 06:45:26;;;;;;;9.87;6.37;;;-0.10;99.90;;;;;;5132639;27;20187;-67
2023/03/02 06:47:51;;;;;;;8.33;4.70;;;0.00;99.90;;;;;;5131214;27;20454;-68
2023/03/02 06:50:17;;;;;;;9.83;4.80;;;0.10;99.90;;;;;;5132593;28;20924;-68
2023/03/02 06:52:42;;;;;;;8.20;5.07;;;0.20;99.90;;;;;;5131364;27;20172;-67
2023/03/02 06:55:08;;;;;;;8.53;4.50;;;0.30;99.90;;;;;;5132705;28;20544;-68
2023/03/02 06:57:34;;;;;;;7.03;5.33;;;0.30;99.90;;;;;;5132424;27;20160;-68
2023/03/02 07:00:08;;;;;;;10.57;5.17;;;0.40;99.90;;;;;;5132544;27;20689;-68
2023/03/02 07:02:34;;;;;;;8.40;5.00;;;0.50;99.90;;;;;;5132706;27;20267;-68
2023/03/02 07:05:00;;;;;;;9.00;5.47;;;0.60;99.90;;;;;;5121278;27;20444;-68
2023/03/02 07:07:26;;;;;;;6.10;3.93;;;0.80;99.90;;;;;;5117303;27;20410;-68
2023/03/02 07:09:51;;;;;;;9.93;5.33;;;0.90;99.90;;;;;;5143820;27;20929;-68
2023/03/02 07:12:17;;;;;;;10.30;5.30;;;1.00;99.90;;;;;;5131206;27;20516;-68
2023/03/02 07:14:42;;;;;;;10.80;5.93;;;1.10;99.90;;;;;;5134960;27;20829;-68
2023/03/02 07:17:08;;;;;;;11.17;5.23;;;1.20;99.90;;;;;;5132009;27;20173;-69
2023/03/02 07:19:33;;;;;;;6.23;4.70;;;1.40;99.90;;;;;;5115793;28;20238;-69
2023/03/02 07:21:59;;;;;;;9.50;5.20;;;1.50;99.90;;;;;;5114574;28;20184;-69
2023/03/02 07:24:25;;;;;;;7.70;5.20;;;1.60;99.90;;;;;;5114708;28;20257;-69
2023/03/02 07:26:50;;;;;;;8.80;5.17;;;1.70;99.90;;;;;;5114218;28;20189;-68
2023/03/02 07:29:16;;;;;;;8.97;4.90;;;1.90;99.90;;;;;;5115603;28;20165;-68
2023/03/02 07:31:43;;;;;;;6.70;4.60;;;2.00;99.90;;;;;;5114432;28;20615;-68
2023/03/02 07:34:08;;;;;;;13.33;5.97;;;2.20;99.90;;;;;;5115764;28;20184;-68
2023/03/02 07:36:34;;;;;;;9.23;5.50;;;2.30;99.90;;;;;;5115687;28;20914;-68
2023/03/02 07:39:03;;;;;;;8.60;6.10;;;2.50;99.90;;;;;;5115350;28;20206;-68
2023/03/02 07:41:28;;;;;;;18.50;6.80;;;2.60;99.90;;;;;;5115429;28;20202;-68
2023/03/02 07:43:54;;;;;;;8.30;5.37;;;2.90;99.90;;;;;;5115345;28;20398;-68
2023/03/02 07:46:20;;;;;;;13.60;6.60;;;3.00;99.90;;;;;;5114388;27;20262;-68
2023/03/02 07:48:45;;;;;;;12.73;6.67;;;3.20;99.90;;;;;;5133186;27;20539;-68
2023/03/02 07:51:11;;;;;;;6.53;5.50;;;3.50;99.90;;;;;;5119248;27;20189;-68
2023/03/02 07:53:36;;;;;;;8.40;5.23;;;3.70;99.90;;;;;;5115279;28;20534;-69
2023/03/02 07:56:10;;;;;;;8.77;4.67;;;4.00;99.90;;;;;;5115312;28;20523;-69
2023/03/02 07:58:36;;;;;;;11.40;5.33;;;4.70;99.90;;;;;;5114779;27;20180;-69
2023/03/02 08:01:01;;;;;;;7.47;4.77;;;5.60;99.90;;;;;;5114776;28;20942;-69
2023/03/02 08:03:27;;;;;;;5.97;4.17;;;6.80;99.90;;;;;;5114233;28;20407;-69
2023/03/02 08:05:52;;;;;;;8.73;4.27;;;8.00;99.90;;;;;;5114150;28;20193;-70
2023/03/02 08:08:18;;;;;;;7.77;4.73;;;9.20;99.90;;;;;;5113373;28;20161;-70
2023/03/02 08:10:43;;;;;;;7.70;5.10;;;10.60;99.90;;;;;;5114899;28;20181;-69
2023/03/02 08:13:09;;;;;;;9.30;5.07;;;12.10;95.70;;;;;;5114613;28;20215;-70
2023/03/02 08:15:34;;;;;;;10.73;4.63;;;13.70;88.20;;;;;;5114890;28;20168;-70
2023/03/02 08:18:00;;;;;;;6.20;4.90;;;15.20;72.10;;;;;;5131314;27;20771;-70
2023/03/02 08:20:25;;;;;;;7.20;4.90;;;16.80;61.60;;;;;;5146662;27;20206;-71
2023/03/02 08:22:51;;;;;;;6.40;5.20;;;18.20;55.40;;;;;;5135180;27;20175;-70
2023/03/02 08:25:17;;;;;;;8.00;4.50;;;19.40;49.30;;;;;;5134097;27;20188;-71
2023/03/02 08:27:44;;;;;;;5.67;5.03;;;20.60;45.90;;;;;;5134639;27;20172;-70
2023/03/02 08:30:11;;;;;;;7.77;6.40;;;21.80;42.90;;;;;;5135092;27;20184;-71
2023/03/02 08:32:37;;;;;;;7.60;6.00;;;22.90;39.50;;;;;;5135240;27;20478;-71
2023/03/02 08:35:04;;;;;;;8.13;5.70;;;24.00;37.00;;;;;;5133740;27;20436;-71
2023/03/02 08:37:30;;;;;;;8.00;5.57;;;24.90;34.40;;;;;;5134690;27;20166;-71
2023/03/02 08:39:56;;;;;;;6.47;5.87;;;25.80;32.90;;;;;;5134758;27;20496;-71
2023/03/02 08:42:22;;;;;;;7.53;6.80;;;27.00;31.30;;;;;;5134812;27;20694;-71
2023/03/02 08:44:47;;;;;;;5.77;5.10;;;28.20;30.20;;;;;;5134762;27;20200;-71
2023/03/02 08:47:13;;;;;;;10.53;6.37;;;29.40;28.80;;;;;;5120985;27;20462;-68
2023/03/02 08:49:38;;;;;;;6.93;6.23;;;30.50;27.50;;;;;;5114045;28;20234;-71
2023/03/02 08:52:04;;;;;;;11.00;6.73;;;31.30;26.20;;;;;;5114235;28;20161;-71
2023/03/02 08:54:33;;;;;;;6.77;6.13;;;32.20;25.80;;;;;;5112886;28;20169;-70
2023/03/02 08:56:59;;;;;;;7.57;6.70;;;32.90;24.70;;;;;;5113649;28;20408;-69
2023/03/02 08:59:24;;;;;;;7.23;6.53;;;33.50;23.90;;;;;;5114070;28;20501;-69
2023/03/02 09:01:50;;;;;;;8.23;6.70;;;34.00;23.30;;;;;;5113863;28;20410;-69
2023/03/02 09:04:15;;;;;;;7.53;6.60;;;34.70;23.10;;;;;;5113881;28;20180;-70
2023/03/02 09:06:43;;;;;;;8.07;6.87;;;35.20;22.60;;;;;;5112316;28;20192;-70
2023/03/02 09:09:10;;;;;;;6.77;6.17;;;35.90;22.20;;;;;;5112181;28;20196;-70
2023/03/02 09:11:36;;;;;;;6.60;6.00;;;36.30;22.30;;;;;;5113502;28;20418;-69
2023/03/02 09:14:02;;;;;;;7.37;6.30;;;36.60;22.00;;;;;;5113677;28;20422;-69
2023/03/02 09:16:28;;;;;;;6.07;5.47;;;36.90;21.50;;;;;;5115211;27;20894;-69
2023/03/02 09:18:53;;;;;;;7.20;6.50;;;37.10;21.40;;;;;;5133556;27;20405;-69
2023/03/02 09:21:20;;;;;;;8.53;6.47;;;37.20;20.90;;;;;;5134109;27;20191;-70
2023/03/02 09:23:45;;;;;;;6.33;5.43;;;37.30;20.80;;;;;;5133937;27;20413;-69
2023/03/02 09:26:11;;;;;;;7.40;6.77;;;37.30;20.80;;;;;;5133978;27;20940;-71
2023/03/02 09:28:38;;;;;;;8.30;5.90;;;37.40;20.50;;;;;;5133801;27;20164;-70
2023/03/02 09:31:05;;;;;;;7.30;6.07;;;37.40;20.40;;;;;;5140072;27;20556;-70
2023/03/02 09:33:32;;;;;;;6.83;5.80;;;37.80;20.40;;;;;;5139911;27;20406;-70
2023/03/02 09:35:57;;;;;;;12.00;6.47;;;38.10;19.90;;;;;;5133714;27;20394;-69
2023/03/02 09:38:23;;;;;;;7.60;6.90;;;38.40;19.80;;;;;;5133476;27;20968;-69
2023/03/02 09:41:18;;;;;;;6.43;5.83;;;38.70;19.40;;;;;;5133813;27;20682;-69
2023/03/02 09:44:16;;;;;;;6.17;5.63;;;39.20;19.60;;;;;;5132446;27;20410;-70
2023/03/02 09:46:50;;;;;;;6.17;5.63;;;39.70;19.60;;;;;;5120519;27;20481;-70
2023/03/02 09:49:47;;;;;;;6.40;5.90;;;40.10;19.10;;;;;;5111755;28;20409;-70
2023/03/02 09:52:29;;;;;;;8.70;6.43;;;40.40;18.90;;;;;;5104742;28;20419;-70
2023/03/02 09:54:59;;;;;;;7.83;7.00;;;40.50;18.70;;;;;;5112981;28;20421;-70
2023/03/02 09:57:30;;;;;;;6.70;6.10;;;40.80;18.40;;;;;;5112748;28;20402;-70
2023/03/02 10:00:01;;;;;;;7.80;6.90;;;41.00;18.40;;;;;;5112851;28;20768;-70
2023/03/02 10:02:31;;;;;;;7.17;6.57;;;41.20;17.70;;;;;;5112786;28;20420;-70
2023/03/02 10:05:01;;;;;;;7.23;6.63;;;41.50;17.90;;;;;;5112755;28;20860;-69
2023/03/02 10:07:29;;;;;;;7.53;6.87;;;41.80;17.70;;;;;;5112290;28;20454;-70
2023/03/02 10:10:18;;;;;;;7.57;6.87;;;41.90;17.30;;;;;;5112692;28;20389;-71
2023/03/02 10:13:01;;;;;;;7.10;6.50;;;42.10;17.40;;;;;;5111130;28;20966;-70
2023/03/02 10:15:51;;;;;;;8.30;7.40;;;42.50;17.40;;;;;;5113168;28;20414;-70
2023/03/02 10:18:19;;;;;;;8.30;7.60;;;42.70;17.10;;;;;;5119047;27;20429;-70
2023/03/02 10:21:28;;;;;;;7.30;6.63;;;42.90;16.90;;;;;;5132769;27;20436;-70
2023/03/02 10:24:22;;;;;;;7.23;6.53;;;43.30;16.90;;;;;;5122397;27;20389;-70
2023/03/02 10:27:16;;;;;;;8.30;7.50;;;43.80;16.60;;;;;;5132893;27;20439;-70
2023/03/02 10:29:56;;;;;;;8.17;7.47;;;43.80;16.40;;;;;;5132849;27;20404;-70
2023/03/02 10:32:28;;;;;;;8.67;7.87;;;44.10;16.60;;;;;;5133039;27;20373;-70
2023/03/02 10:34:54;;;;;;;7.73;7.10;;;44.30;16.40;;;;;;5131658;27;20388;-70
2023/03/02 10:37:27;;;;;;;8.07;6.10;;;44.50;16.30;;;;;;5132627;28;20943;-71
2023/03/02 10:39:54;;;;;;;7.90;6.60;;;44.90;16.40;;;;;;5131499;28;20197;-71
2023/03/02 10:42:30;;;;;;;9.20;8.30;;;45.40;16.50;;;;;;5137049;27;20901;-71
2023/03/02 10:45:13;;;;;;;8.20;7.40;;;45.60;16.30;;;;;;5137301;27;20380;-71
2023/03/02 10:47:39;;;;;;;6.40;5.90;;;45.90;16.00;;;;;;5111207;28;20471;-71
2023/03/02 10:50:20;;;;;;;7.73;7.03;;;46.00;16.00;;;;;;5116434;28;20875;-71
2023/03/02 10:52:50;;;;;;;7.23;6.53;;;46.00;16.00;;;;;;5116456;28;20661;-70
2023/03/02 10:55:16;;;;;;;8.13;6.50;;;45.80;15.60;;;;;;5116366;28;20865;-71
2023/03/02 10:57:44;;;;;;;7.63;6.90;;;45.70;15.70;;;;;;5116045;28;20385;-71
2023/03/02 11:00:15;;;;;;;7.90;7.30;;;45.70;15.80;;;;;;5118970;27;20404;-71
2023/03/02 11:02:50;;;;;;;7.20;6.60;;;45.70;15.80;;;;;;5116298;27;20407;-71
2023/03/02 11:05:29;;;;;;;7.53;6.83;;;45.50;16.00;;;;;;5116262;28;20397;-71
2023/03/02 11:08:04;;;;;;;6.47;5.97;;;45.50;15.80;;;;;;5115921;28;20569;-71
2023/03/02 11:10:33;;;;;;;7.40;6.70;;;45.50;15.90;;;;;;5116180;28;20491;-71
2023/03/02 11:13:00;;;;;;;7.63;6.93;;;45.60;15.70;;;;;;5116062;27;20940;-71
2023/03/02 11:15:35;;;;;;;7.18;6.47;;;45.50;15.60;;;;;;5117384;27;20410;-71
2023/03/02 11:18:24;;;;;;;7.70;7.00;;;45.40;15.50;;;;;;5115837;28;20237;-71
2023/03/02 11:20:54;;;;;;;7.00;6.07;;;45.20;15.50;;;;;;5115966;28;20443;-71
2023/03/02 11:23:37;;;;;;;6.80;6.20;;;45.30;15.50;;;;;;5115867;28;20390;-71
2023/03/02 11:26:29;;;;;;;6.97;6.37;;;45.50;15.90;;;;;;5115587;28;20524;-71
2023/03/02 11:29:23;;;;;;;7.40;6.70;;;45.90;15.80;;;;;;5115421;28;20403;-71
2023/03/02 11:32:02;;;;;;;8.63;7.80;;;46.10;15.70;;;;;;5115698;28;20391;-70
2023/03/02 11:34:37;;;;;;;6.80;6.30;;;46.20;15.50;;;;;;5115668;28;20369;-71
2023/03/02 11:37:16;;;;;;;8.40;6.87;;;46.20;15.50;;;;;;5115228;28;20779;-71
2023/03/02 11:39:48;;;;;;;7.70;7.00;;;46.20;15.30;;;;;;5119564;27;20392;-71
2023/03/02 11:42:37;;;;;;;6.77;6.17;;;46.20;15.60;;;;;;5136252;27;20908;-71
2023/03/02 11:45:28;;;;;;;6.93;6.30;;;46.30;15.80;;;;;;5136113;27;20866;-71
2023/03/02 11:48:04;;;;;;;7.50;6.80;;;46.40;15.50;;;;;;5124130;27;20412;-70
2023/03/02 11:50:39;;;;;;;6.60;6.07;;;46.50;15.60;;;;;;5145169;27;20407;-71
2023/03/02 11:53:12;;;;;;;7.33;6.63;;;46.50;15.50;;;;;;5134687;27;20405;-71
2023/03/02 11:55:44;;;;;;;7.60;6.90;;;46.50;15.70;;;;;;5135841;27;20416;-72
2023/03/02 11:58:21;;;;;;;7.00;6.40;;;46.60;15.60;;;;;;5135644;27;20370;-70
2023/03/02 12:00:47;;;;;;;8.27;7.43;;;46.80;15.40;;;;;;5135729;27;20384;-71
2023/03/02 12:03:15;;;;;;;6.90;6.30;;;46.80;15.30;;;;;;5135614;27;20364;-71
2023/03/02 12:05:50;;;;;;;7.40;6.70;;;46.90;15.60;;;;;;5118373;27;20944;-71
2023/03/02 12:08:19;;;;;;;6.77;6.20;;;46.90;15.40;;;;;;5114636;28;20423;-70
2023/03/02 12:11:02;;;;;;;7.20;6.60;;;46.90;15.40;;;;;;5118693;27;20445;-71
2023/03/02 12:13:38;;;;;;;7.60;6.93;;;46.80;15.40;;;;;;5126197;27;20444;-71
2023/03/02 12:16:19;;;;;;;7.87;7.07;;;46.80;15.40;;;;;;5135494;27;20914;-70
2023/03/02 12:18:50;;;;;;;7.17;6.57;;;46.50;15.10;;;;;;5122935;27;20894;-71
2023/03/02 12:21:17;;;;;;;6.60;6.10;;;46.50;15.20;;;;;;5135315;27;20798;-71
2023/03/02 12:23:46;;;;;;;5.90;5.40;;;46.50;15.40;;;;;;5135330;27;20369;-71
2023/03/02 12:26:26;;;;;;;7.60;6.83;;;46.50;15.50;;;;;;5135215;27;20372;-70
2023/03/02 12:28:58;;;;;;;7.70;7.00;;;46.60;15.30;;;;;;5133114;27;20440;-71
2023/03/02 12:31:24;;;;;;;6.67;6.07;;;46.80;15.70;;;;;;5134985;27;20403;-70
2023/03/02 12:33:51;;;;;;;7.50;6.77;;;46.80;15.30;;;;;;5134759;27;20404;-71
2023/03/02 12:36:41;;;;;;;7.03;6.53;;;46.50;15.00;;;;;;5134848;27;20518;-70
2023/03/02 12:39:33;;;;;;;8.03;7.33;;;46.30;15.40;;;;;;5131192;27;20477;-71
2023/03/02 12:42:20;;;;;;;6.80;6.10;;;46.00;15.00;;;;;;5082614;27;20416;-71
2023/03/02 12:45:18;;;;;;;7.20;6.50;;;45.90;15.10;;;;;;5114424;28;20388;-70
2023/03/02 12:47:46;;;;;;;8.00;7.40;;;45.60;15.30;;;;;;5080633;28;20380;-70
2023/03/02 12:50:23;;;;;;;7.63;7.00;;;45.30;15.30;;;;;;5114144;28;20393;-70
2023/03/02 12:52:59;;;;;;;7.63;6.93;;;45.10;15.40;;;;;;5114219;28;20377;-70
2023/03/02 12:55:25;;;;;;;7.43;6.80;;;44.90;15.40;;;;;;5114176;28;20391;-70
2023/03/02 12:57:53;;;;;;;9.50;6.43;;;44.60;15.10;;;;;;5113828;28;20402;-70
2023/03/02 13:00:22;;;;;;;8.03;6.87;;;44.60;15.40;;;;;;5128720;27;20184;-70